Detall de PIREP

Printer-friendly versionPDF version

[2014/08/21 10:14:00]
Flight IATA:CT3122
Pilot Number:042
Company ICAO:CAT
Aircraft Type:A320/E
PAX:98
Departing Airport: LEPA
Destination Airport: LEZG
Alternate Airport:LEMD
Online: VATSIM
Route:DRAGO A29 PAPOS R80 MLA
Flight Level:F240
No Slew and time accel
No pause
Crash detect
Detect pilot in Cockpit between each 30 and 45 minutes
10:14 Zero fuel Weight: 124282 Lbs, Fuel Weight: 42180 Lbs
10:14 VATSIM:LEPA 211000Z 20004KT 130V260 9999 BKN022 27/20 Q1016 NOSIG
10:14 VATSIM:LEZG 211000Z 32007KT 290V360 CAVOK 20/10 Q1018
10:28 Parking Brakes off
10:35 Take-off
10:35 Take off Weight: 165179 Lbs
10:35 Wind: 269º @ 008 Knots Heading: 239º
10:35 POS N39º 33´ 06´´ E002º 43´ 12´´
10:35 Flaps:3 at 140 Knots
10:35 Gear Up: 139 Knots
10:36 Flaps:2 at 162 Knots
10:36 Flaps:0 at 163 Knots
10:44 TOC
10:44 Fuel Weight: 38485 Lb
10:50 Wind:270º@025 Knots Heading: 335º Ground Speed: 414 Knots Altitude 23986 ft
11:04 TOD
11:04 Fuel Weight: 36520 Lb
11:05 Wind:270º@025 Knots Heading: 299º Ground Speed: 346 Knots Altitude 22742 ft
11:17 Flaps:1 at 206 Knots
11:17 Flaps:3 at 190 Knots
11:20 Wind:269º@008 Knots Heading: 283º Ground Speed: 152 Knots Altitude 3786 ft
11:20 Gear Down: 149 Knots
11:21 Flaps:4 at 149 Knots
11:21 Flaps:5 at 148 Knots
11:21 Gear Up: 145 Knots
11:23 Gear Down: 158 Knots
11:27 TouchDown:Rate -209 ft/min Speed: 140 Knots
11:27 VATSIM:LEZG 211100Z 35002KT CAVOK 22/09 Q1018
11:27 Land
11:27 Wind:269º@008 Knots
11:27 Heading: 299º
11:27 Flight Duration: 00:52
11:27 Landing Weight: 159298 Lbs
11:27 POS N41º 39´ 41´´ W001º 01´ 19´´
11:30 Parking brakes on
11:30 Block to Block Duration: 01:02
11:30 Final Fuel: 34638 Lbls
11:30 Spent Fuel: 7541 Lbls
11:30 Flight Length: 265 NM
11:30 TOD Land Length: 84NM

Exportar CSV

Powered by Drupal - Modified by Danger4k